PWSweather.com
Personal Weather Stations
Station Observations
KTXDECATUR
Wildwood, Decatur, TX 76234

WildwoodDecatur, TX 76234

Lat: 33.2634, Lon: -97.6651

Elevation: 800

Station Type: Davis Vantage Pro 2

http://weather.wildwoodnaturist.com

Latest ConditionsUpdated 1:20:02 PM CDT Monday, Apr 27, 2015
Currently Today's Max Today's Min Today's Average
Temperature 65.3°F18.5°C 67.4°F19.7°C 60.9°F16.1°C 64.0°F17.8°C
Dew Point 59.7°F15.4°C 62.2°F16.8°C 57.5°F14.2°C 59.7°F15.4°C
Winds 3.5 mph E5.6 kmh E 25.3 mph W40.7 kmh W - 7.6 mph 12.2 kmh
Wind Gusts 9.2 mph14.8 kmh 29.9 mph48.1 kmh - -
Humidity 82% 93% 73% 86%
Pressure 29.71 in1006.1 mb 29.76 in1007.8 mb 29.52 in999.7 mb -
Precipitation - 0.11 in2.8 mm - -
Hour Temp Dew Point Humidity Winds Wind Gusts Pressure Precip Precip Rate Daily Precip Total
01:20 PM 65.3°F18.5°C 59.7°F15.4°C 82% 3.5 mph E5.6 kmh E 9.2 mph14.8 kmh 29.71 in1006.1 mb - 0.00 in0.0 mm 0.11 in2.8 mm
01:15 PM 65.5°F18.6°C 60.2°F15.7°C 83% 6.9 mph ESE11.1 kmh ESE 13.8 mph22.2 kmh 29.71 in1006.1 mb - 0.00 in0.0 mm 0.11 in2.8 mm
01:10 PM 65.5°F18.6°C 60.5°F15.8°C 84% 9.2 mph ENE14.8 kmh ENE 13.8 mph22.2 kmh 29.70 in1005.8 mb - 0.00 in0.0 mm 0.11 in2.8 mm
01:00 PM 64.9°F18.3°C 59.7°F15.4°C 83% 10.4 mph E16.7 kmh E 12.7 mph20.4 kmh 29.71 in1006.1 mb - 0.00 in0.0 mm 0.11 in2.8 mm
12:50 PM 64.7°F18.2°C 59.8°F15.4°C 84% 9.2 mph E14.8 kmh E 12.7 mph20.4 kmh 29.71 in1006.1 mb - 0.00 in0.0 mm 0.11 in2.8 mm
12:45 PM 65.1°F18.4°C 59.8°F15.4°C 83% 8.1 mph ENE13.0 kmh ENE 11.5 mph18.5 kmh 29.71 in1006.1 mb - 0.00 in0.0 mm 0.11 in2.8 mm
12:40 PM 65.6°F18.7°C 60.7°F15.9°C 84% 8.1 mph E13.0 kmh E 15.0 mph24.1 kmh 29.71 in1006.1 mb - 0.00 in0.0 mm 0.11 in2.8 mm
12:30 PM 66.1°F18.9°C 60.4°F15.8°C 82% 15.0 mph ENE24.1 kmh ENE 16.1 mph25.9 kmh 29.71 in1006.1 mb - 0.00 in0.0 mm 0.11 in2.8 mm
12:20 PM 65.6°F18.7°C 60.3°F15.7°C 83% 9.2 mph E14.8 kmh E 13.8 mph22.2 kmh 29.72 in1006.4 mb - 0.00 in0.0 mm 0.11 in2.8 mm
12:15 PM 65.1°F18.4°C 60.1°F15.6°C 84% 6.9 mph E11.1 kmh E 10.4 mph16.7 kmh 29.73 in1006.8 mb - 0.00 in0.0 mm 0.11 in2.8 mm
12:10 PM 64.8°F18.2°C 59.9°F15.5°C 84% 6.9 mph E11.1 kmh E 9.2 mph14.8 kmh 29.73 in1006.8 mb - 0.00 in0.0 mm 0.11 in2.8 mm
11:20 AM 61.8°F16.6°C 57.9°F14.4°C 87% 1.2 mph SE1.9 kmh SE 3.5 mph5.6 kmh 29.76 in1007.8 mb - 0.00 in0.0 mm 0.11 in2.8 mm
11:15 AM 61.8°F16.6°C 57.9°F14.4°C 87% 1.2 mph SE1.9 kmh SE 2.3 mph3.7 kmh 29.76 in1007.8 mb - 0.00 in0.0 mm 0.11 in2.8 mm
11:10 AM 61.9°F16.6°C 58.3°F14.6°C 88% Calm Calm 2.3 mph3.7 kmh 29.75 in1007.5 mb - 0.00 in0.0 mm 0.11 in2.8 mm
11:00 AM 61.6°F16.4°C 58.0°F14.4°C 88% 2.3 mph ESE3.7 kmh ESE 5.8 mph9.3 kmh 29.74 in1007.1 mb - 0.00 in0.0 mm 0.11 in2.8 mm
10:50 AM 61.5°F16.4°C 57.9°F14.4°C 88% 5.8 mph SE9.3 kmh SE 9.2 mph14.8 kmh 29.73 in1006.8 mb - 0.00 in0.0 mm 0.11 in2.8 mm
10:45 AM 61.4°F16.3°C 57.8°F14.3°C 88% 4.6 mph SE7.4 kmh SE 9.2 mph14.8 kmh 29.73 in1006.8 mb - 0.00 in0.0 mm 0.11 in2.8 mm
10:40 AM 61.3°F16.3°C 57.7°F14.3°C 88% 4.6 mph SE7.4 kmh SE 5.8 mph9.3 kmh 29.73 in1006.8 mb - 0.00 in0.0 mm 0.11 in2.8 mm
10:30 AM 61.4°F16.3°C 57.8°F14.3°C 88% 2.3 mph E3.7 kmh E 8.1 mph13.0 kmh 29.72 in1006.4 mb - 0.00 in0.0 mm 0.11 in2.8 mm
10:20 AM 61.2°F16.2°C 57.9°F14.4°C 89% 6.9 mph E11.1 kmh E 10.4 mph16.7 kmh 29.72 in1006.4 mb - 0.00 in0.0 mm 0.11 in2.8 mm
10:15 AM 61.1°F16.2°C 57.8°F14.3°C 89% 8.1 mph E13.0 kmh E 10.4 mph16.7 kmh 29.71 in1006.1 mb - 0.00 in0.0 mm 0.11 in2.8 mm
10:10 AM 60.9°F16.1°C 57.6°F14.2°C 89% 6.9 mph E11.1 kmh E 12.7 mph20.4 kmh 29.71 in1006.1 mb - 0.00 in0.0 mm 0.11 in2.8 mm
10:00 AM 61.2°F16.2°C 57.9°F14.4°C 89% 5.8 mph ESE9.3 kmh ESE 5.8 mph9.3 kmh 29.71 in1006.1 mb - 0.00 in0.0 mm 0.11 in2.8 mm
09:50 AM 61.8°F16.6°C 58.2°F14.6°C 88% 3.5 mph E5.6 kmh E 8.1 mph13.0 kmh 29.70 in1005.8 mb - 0.00 in0.0 mm 0.11 in2.8 mm
09:45 AM 61.6°F16.4°C 58.0°F14.4°C 88% 2.3 mph ESE3.7 kmh ESE 5.8 mph9.3 kmh 29.70 in1005.8 mb - 0.00 in0.0 mm 0.11 in2.8 mm
09:40 AM 61.5°F16.4°C 58.2°F14.6°C 89% 8.1 mph ESE13.0 kmh ESE 9.2 mph14.8 kmh 29.69 in1005.4 mb - 0.00 in0.0 mm 0.11 in2.8 mm
09:30 AM 61.6°F16.4°C 58.6°F14.8°C 90% 9.2 mph E14.8 kmh E 16.1 mph25.9 kmh 29.68 in1005.1 mb - 0.00 in0.0 mm 0.11 in2.8 mm
09:20 AM 61.4°F16.3°C 58.7°F14.8°C 91% 10.4 mph E16.7 kmh E 17.3 mph27.8 kmh 29.66 in1004.4 mb - 0.00 in0.0 mm 0.11 in2.8 mm
09:15 AM 61.2°F16.2°C 58.2°F14.6°C 90% 6.9 mph E11.1 kmh E 10.4 mph16.7 kmh 29.66 in1004.4 mb - 0.00 in0.0 mm 0.11 in2.8 mm
09:10 AM 61.3°F16.3°C 58.6°F14.8°C 91% 9.2 mph E14.8 kmh E 16.1 mph25.9 kmh 29.66 in1004.4 mb - 0.00 in0.0 mm 0.11 in2.8 mm
09:00 AM 61.4°F16.3°C 58.7°F14.8°C 91% 10.4 mph E16.7 kmh E 17.3 mph27.8 kmh 29.66 in1004.4 mb - 0.00 in0.0 mm 0.11 in2.8 mm
08:50 AM 61.8°F16.6°C 59.1°F15.1°C 91% 10.4 mph E16.7 kmh E 16.1 mph25.9 kmh 29.64 in1003.7 mb - 0.00 in0.0 mm 0.11 in2.8 mm
08:45 AM 61.8°F16.6°C 59.2°F15.1°C 91% 15.0 mph E24.1 kmh E 19.6 mph31.5 kmh 29.64 in1003.7 mb - 0.00 in0.0 mm 0.11 in2.8 mm
08:40 AM 61.7°F16.5°C 59.4°F15.2°C 92% 12.7 mph E20.4 kmh E 17.3 mph27.8 kmh 29.64 in1003.7 mb - 0.00 in0.0 mm 0.11 in2.8 mm
08:30 AM 61.6°F16.4°C 59.3°F15.2°C 92% 13.8 mph E22.2 kmh E 19.6 mph31.5 kmh 29.64 in1003.7 mb - 0.00 in0.0 mm 0.11 in2.8 mm
08:20 AM 61.9°F16.6°C 59.6°F15.3°C 92% 10.4 mph E16.7 kmh E 11.5 mph18.5 kmh 29.63 in1003.4 mb - 0.00 in0.0 mm 0.11 in2.8 mm
08:15 AM 62.0°F16.7°C 59.6°F15.3°C 92% 12.7 mph E20.4 kmh E 17.3 mph27.8 kmh 29.64 in1003.7 mb - 0.00 in0.0 mm 0.11 in2.8 mm
08:10 AM 62.0°F16.7°C 59.7°F15.4°C 92% 13.8 mph E22.2 kmh E 21.9 mph35.2 kmh 29.63 in1003.4 mb - 0.00 in0.0 mm 0.11 in2.8 mm
08:00 AM 62.3°F16.8°C 60.2°F15.7°C 93% 15.0 mph E24.1 kmh E 21.9 mph35.2 kmh 29.63 in1003.4 mb - 0.00 in0.0 mm 0.11 in2.8 mm
07:50 AM 62.4°F16.9°C 60.4°F15.8°C 93% 10.4 mph E16.7 kmh E 15.0 mph24.1 kmh 29.63 in1003.4 mb - 0.00 in0.0 mm 0.11 in2.8 mm
07:45 AM 62.5°F16.9°C 60.5°F15.8°C 93% 12.7 mph E20.4 kmh E 16.1 mph25.9 kmh 29.63 in1003.4 mb - 0.00 in0.0 mm 0.11 in2.8 mm
07:40 AM 62.7°F17.1°C 60.3°F15.7°C 92% 10.4 mph E16.7 kmh E 20.7 mph33.3 kmh 29.62 in1003.0 mb - 0.00 in0.0 mm 0.11 in2.8 mm
07:30 AM 63.5°F17.5°C 61.4°F16.3°C 93% 11.5 mph E18.5 kmh E 12.7 mph20.4 kmh 29.63 in1003.4 mb - 0.00 in0.0 mm 0.11 in2.8 mm
07:20 AM 64.3°F17.9°C 62.2°F16.8°C 93% 6.9 mph E11.1 kmh E 10.4 mph16.7 kmh 29.63 in1003.4 mb - 0.00 in0.0 mm 0.11 in2.8 mm
07:15 AM 64.3°F17.9°C 62.2°F16.8°C 93% 6.9 mph E11.1 kmh E 8.1 mph13.0 kmh 29.63 in1003.4 mb - 0.00 in0.0 mm 0.11 in2.8 mm
07:10 AM 64.3°F17.9°C 62.2°F16.8°C 93% 6.9 mph ESE11.1 kmh ESE 9.2 mph14.8 kmh 29.63 in1003.4 mb - 0.00 in0.0 mm 0.11 in2.8 mm
07:00 AM 64.3°F17.9°C 62.2°F16.8°C 93% 2.3 mph E3.7 kmh E 5.8 mph9.3 kmh 29.64 in1003.7 mb - 0.00 in0.0 mm 0.11 in2.8 mm
06:50 AM 64.2°F17.9°C 62.1°F16.7°C 93% 5.8 mph E9.3 kmh E 12.7 mph20.4 kmh 29.62 in1003.0 mb - 0.00 in0.0 mm 0.11 in2.8 mm
06:45 AM 64.1°F17.8°C 62.0°F16.7°C 93% 5.8 mph E9.3 kmh E 10.4 mph16.7 kmh 29.62 in1003.0 mb - 0.00 in0.0 mm 0.11 in2.8 mm
06:40 AM 64.1°F17.8°C 62.0°F16.7°C 93% 10.4 mph E16.7 kmh E 12.7 mph20.4 kmh 29.61 in1002.7 mb - 0.00 in0.0 mm 0.11 in2.8 mm
06:30 AM 64.0°F17.8°C 61.9°F16.6°C 93% 6.9 mph E11.1 kmh E 11.5 mph18.5 kmh 29.61 in1002.7 mb - 0.00 in0.0 mm 0.11 in2.8 mm
06:20 AM 64.1°F17.8°C 61.7°F16.5°C 92% 9.2 mph E14.8 kmh E 10.4 mph16.7 kmh 29.61 in1002.7 mb - 0.00 in0.0 mm 0.11 in2.8 mm
06:15 AM 64.1°F17.8°C 61.7°F16.5°C 92% 8.1 mph E13.0 kmh E 10.4 mph16.7 kmh 29.61 in1002.7 mb - 0.00 in0.0 mm 0.11 in2.8 mm
06:10 AM 64.2°F17.9°C 61.8°F16.6°C 92% 9.2 mph E14.8 kmh E 8.1 mph13.0 kmh 29.60 in1002.4 mb - 0.00 in0.0 mm 0.11 in2.8 mm
06:00 AM 64.3°F17.9°C 61.9°F16.6°C 92% 5.8 mph E9.3 kmh E 8.1 mph13.0 kmh 29.61 in1002.7 mb - 0.00 in0.0 mm 0.11 in2.8 mm
05:50 AM 64.3°F17.9°C 61.6°F16.4°C 91% 4.6 mph E7.4 kmh E 5.8 mph9.3 kmh 29.61 in1002.7 mb - 0.00 in0.0 mm 0.11 in2.8 mm
05:45 AM 64.3°F17.9°C 61.6°F16.4°C 91% 3.5 mph E5.6 kmh E 8.1 mph13.0 kmh 29.61 in1002.7 mb - 0.00 in0.0 mm 0.11 in2.8 mm
05:40 AM 64.3°F17.9°C 61.3°F16.3°C 90% 4.6 mph E7.4 kmh E 8.1 mph13.0 kmh 29.61 in1002.7 mb - 0.00 in0.0 mm 0.11 in2.8 mm
05:30 AM 64.5°F18.1°C 61.2°F16.2°C 89% 6.9 mph E11.1 kmh E 12.7 mph20.4 kmh 29.59 in1002.0 mb - 0.00 in0.0 mm 0.11 in2.8 mm
05:20 AM 64.6°F18.1°C 61.3°F16.3°C 89% 9.2 mph ENE14.8 kmh ENE 12.7 mph20.4 kmh 29.59 in1002.0 mb - 0.00 in0.0 mm 0.11 in2.8 mm
05:15 AM 64.6°F18.1°C 61.0°F16.1°C 88% 9.2 mph E14.8 kmh E 17.3 mph27.8 kmh 29.59 in1002.0 mb - 0.00 in0.0 mm 0.11 in2.8 mm
05:10 AM 64.7°F18.2°C 61.1°F16.2°C 88% 5.8 mph E9.3 kmh E 12.7 mph20.4 kmh 29.59 in1002.0 mb - 0.00 in0.0 mm 0.11 in2.8 mm
05:00 AM 64.9°F18.3°C 60.9°F16.1°C 87% 9.2 mph E14.8 kmh E 12.7 mph20.4 kmh 29.59 in1002.0 mb - 0.00 in0.0 mm 0.11 in2.8 mm
04:50 AM 64.9°F18.3°C 60.3°F15.7°C 85% 12.7 mph E20.4 kmh E 18.4 mph29.6 kmh 29.58 in1001.7 mb - 0.00 in0.0 mm 0.11 in2.8 mm
04:45 AM 64.9°F18.3°C 59.9°F15.5°C 84% 11.5 mph E18.5 kmh E 12.7 mph20.4 kmh 29.58 in1001.7 mb - 0.00 in0.0 mm 0.11 in2.8 mm
04:40 AM 64.8°F18.2°C 59.5°F15.3°C 83% 12.7 mph E20.4 kmh E 12.7 mph20.4 kmh 29.57 in1001.4 mb - 0.00 in0.0 mm 0.11 in2.8 mm
04:30 AM 64.8°F18.2°C 59.2°F15.1°C 82% 10.4 mph E16.7 kmh E 13.8 mph22.2 kmh 29.59 in1002.0 mb - 0.00 in0.0 mm 0.11 in2.8 mm
04:20 AM 64.4°F18.0°C 59.1°F15.1°C 83% 9.2 mph ENE14.8 kmh ENE 17.3 mph27.8 kmh 29.60 in1002.4 mb - 0.00 in0.0 mm 0.11 in2.8 mm
04:15 AM 63.8°F17.7°C 59.2°F15.1°C 85% 5.8 mph E9.3 kmh E 10.4 mph16.7 kmh 29.60 in1002.4 mb - 0.00 in0.0 mm 0.11 in2.8 mm
04:10 AM 63.0°F17.2°C 59.1°F15.1°C 87% 6.9 mph ENE11.1 kmh ENE 9.2 mph14.8 kmh 29.59 in1002.0 mb - 0.00 in0.0 mm 0.11 in2.8 mm
04:00 AM 62.9°F17.2°C 59.0°F15.0°C 87% 2.3 mph E3.7 kmh E 4.6 mph7.4 kmh 29.59 in1002.0 mb - 0.00 in0.0 mm 0.11 in2.8 mm
03:50 AM 63.5°F17.5°C 58.9°F14.9°C 85% 2.3 mph SE3.7 kmh SE 4.6 mph7.4 kmh 29.60 in1002.4 mb - 0.00 in0.0 mm 0.11 in2.8 mm
03:45 AM 63.6°F17.6°C 58.7°F14.8°C 84% 1.2 mph E1.9 kmh E 2.3 mph3.7 kmh 29.59 in1002.0 mb - 0.00 in0.0 mm 0.11 in2.8 mm
03:40 AM 63.6°F17.6°C 58.7°F14.8°C 84% 2.3 mph NE3.7 kmh NE 5.8 mph9.3 kmh 29.59 in1002.0 mb - 0.00 in0.0 mm 0.11 in2.8 mm
03:30 AM 63.6°F17.6°C 58.7°F14.8°C 84% 1.2 mph NNE1.9 kmh NNE 2.3 mph3.7 kmh 29.60 in1002.4 mb - 0.00 in0.0 mm 0.11 in2.8 mm
03:20 AM 63.7°F17.6°C 58.8°F14.9°C 84% 6.9 mph N11.1 kmh N 6.9 mph11.1 kmh 29.61 in1002.7 mb - 0.00 in0.0 mm 0.11 in2.8 mm
03:15 AM 63.8°F17.7°C 58.9°F14.9°C 84% 3.5 mph NE5.6 kmh NE 3.5 mph5.6 kmh 29.61 in1002.7 mb - 0.01 in0.3 mm 0.11 in2.8 mm
03:10 AM 64.0°F17.8°C 59.1°F15.1°C 84% 9.2 mph NE14.8 kmh NE 15.0 mph24.1 kmh 29.60 in1002.4 mb - 0.01 in0.3 mm 0.10 in2.5 mm
03:00 AM 64.7°F18.2°C 59.1°F15.1°C 82% 6.9 mph ENE11.1 kmh ENE 9.2 mph14.8 kmh 29.59 in1002.0 mb - 0.03 in0.8 mm 0.10 in2.5 mm
02:50 AM 65.3°F18.5°C 58.6°F14.8°C 79% 6.9 mph ENE11.1 kmh ENE 12.7 mph20.4 kmh 29.58 in1001.7 mb - 0.00 in0.0 mm 0.07 in1.8 mm
02:45 AM 65.0°F18.3°C 58.3°F14.6°C 79% 10.4 mph ENE16.7 kmh ENE 19.6 mph31.5 kmh 29.58 in1001.7 mb - 0.00 in0.0 mm 0.07 in1.8 mm
02:40 AM 64.6°F18.1°C 58.3°F14.6°C 80% 10.4 mph NE16.7 kmh NE 16.1 mph25.9 kmh 29.57 in1001.4 mb - 0.01 in0.3 mm 0.07 in1.8 mm
02:30 AM 65.0°F18.3°C 58.3°F14.6°C 79% 11.5 mph NE18.5 kmh NE 23.0 mph37.0 kmh 29.59 in1002.0 mb - 0.02 in0.5 mm 0.06 in1.5 mm
02:20 AM 66.0°F18.9°C 58.2°F14.6°C 76% 9.2 mph NE14.8 kmh NE 16.1 mph25.9 kmh 29.59 in1002.0 mb - 0.01 in0.3 mm 0.04 in1.0 mm
02:15 AM 66.5°F19.2°C 58.0°F14.4°C 74% 4.6 mph ENE7.4 kmh ENE 8.1 mph13.0 kmh 29.60 in1002.4 mb - 0.01 in0.3 mm 0.04 in1.0 mm
02:10 AM 66.4°F19.1°C 57.5°F14.2°C 73% 3.5 mph E5.6 kmh E 11.5 mph18.5 kmh 29.60 in1002.4 mb - 0.00 in0.0 mm 0.03 in0.8 mm
02:00 AM 66.4°F19.1°C 58.2°F14.6°C 75% 4.6 mph E7.4 kmh E 10.4 mph16.7 kmh 29.60 in1002.4 mb - 0.00 in0.0 mm 0.03 in0.8 mm
01:50 AM 66.2°F19.0°C 58.8°F14.9°C 77% 6.9 mph ESE11.1 kmh ESE 9.2 mph14.8 kmh 29.59 in1002.0 mb - 0.00 in0.0 mm 0.03 in0.8 mm
01:45 AM 66.1°F18.9°C 59.0°F15.0°C 78% 4.6 mph ESE7.4 kmh ESE 6.9 mph11.1 kmh 29.60 in1002.4 mb - 0.00 in0.0 mm 0.03 in0.8 mm
01:40 AM 66.2°F19.0°C 59.9°F15.5°C 80% 8.1 mph ESE13.0 kmh ESE 11.5 mph18.5 kmh 29.61 in1002.7 mb - 0.00 in0.0 mm 0.03 in0.8 mm
01:30 AM 66.8°F19.3°C 61.1°F16.2°C 82% 1.2 mph S1.9 kmh S 1.2 mph1.9 kmh 29.63 in1003.4 mb - 0.00 in0.0 mm 0.03 in0.8 mm
01:20 AM 67.0°F19.4°C 61.0°F16.1°C 81% 1.2 mph ESE1.9 kmh ESE 5.8 mph9.3 kmh 29.63 in1003.4 mb - 0.00 in0.0 mm 0.03 in0.8 mm
01:15 AM 67.2°F19.6°C 61.5°F16.4°C 82% 5.8 mph ESE9.3 kmh ESE 9.2 mph14.8 kmh 29.63 in1003.4 mb - 0.00 in0.0 mm 0.03 in0.8 mm
01:10 AM 67.4°F19.7°C 61.7°F16.5°C 82% 8.1 mph E13.0 kmh E 11.5 mph18.5 kmh 29.61 in1002.7 mb - 0.00 in0.0 mm 0.03 in0.8 mm
01:00 AM 67.0°F19.4°C 61.3°F16.3°C 82% 2.3 mph ENE3.7 kmh ENE 2.3 mph3.7 kmh 29.62 in1003.0 mb - 0.00 in0.0 mm 0.03 in0.8 mm
12:50 AM 66.2°F19.0°C 60.5°F15.8°C 82% 4.6 mph E7.4 kmh E 9.2 mph14.8 kmh 29.62 in1003.0 mb - 0.00 in0.0 mm 0.03 in0.8 mm
12:45 AM 66.3°F19.1°C 60.6°F15.9°C 82% 4.6 mph NE7.4 kmh NE 6.9 mph11.1 kmh 29.59 in1002.0 mb - 0.00 in0.0 mm 0.03 in0.8 mm
12:40 AM 66.1°F18.9°C 60.5°F15.8°C 82% 4.6 mph E7.4 kmh E 10.4 mph16.7 kmh 29.59 in1002.0 mb - 0.00 in0.0 mm 0.03 in0.8 mm
12:30 AM 64.9°F18.3°C 60.2°F15.7°C 85% 10.4 mph E16.7 kmh E 21.9 mph35.2 kmh 29.56 in1001.0 mb - 0.00 in0.0 mm 0.03 in0.8 mm
12:20 AM 65.3°F18.5°C 60.0°F15.6°C 83% 18.4 mph E29.6 kmh E 29.9 mph48.1 kmh 29.52 in999.7 mb - 0.01 in0.3 mm 0.03 in0.8 mm
12:15 AM 66.1°F18.9°C 60.1°F15.6°C 81% 17.3 mph ENE27.8 kmh ENE 21.9 mph35.2 kmh 29.53 in1000.0 mb - 0.01 in0.3 mm 0.02 in0.5 mm
12:10 AM 66.3°F19.1°C 59.9°F15.5°C 80% 4.6 mph E7.4 kmh E 8.1 mph13.0 kmh 29.63 in1003.4 mb - 0.02 in0.5 mm 0.02 in0.5 mm
12:00 AM 65.0°F18.3°C 60.1°F15.6°C 84% 25.3 mph W40.7 kmh W 27.6 mph44.4 kmh 29.67 in1004.7 mb - 0.04 in1.0 mm 0.04 in1.0 mm